Time;durP1;ratioP1;P1;durP2;ratioP2;P2;SDS_P1;SDS_P2;PMS_P1;PMS_P2;Temp;Humidity;BMP_temperature;BMP_pressure;BME280_temperature;BME280_humidity;BME280_pressure;Samples;Min_cycle;Max_cycle;Signal;HPM_P1;HPM_P2
2022/04/19 00:03:22;;;;;;;4.33;2.10;;;7.40;99.90;;;;;;4893189;29;20240;-76
2022/04/19 00:05:49;;;;;;;4.10;2.10;;;7.40;99.90;;;;;;4897836;29;20203;-76
2022/04/19 00:08:16;;;;;;;3.60;2.27;;;7.40;99.90;;;;;;4901900;29;20195;-76
2022/04/19 00:10:43;;;;;;;4.43;2.30;;;7.20;99.90;;;;;;4897373;29;20243;-76
2022/04/19 00:13:12;;;;;;;3.20;2.40;;;7.20;99.90;;;;;;4891067;29;20222;-77
2022/04/19 00:15:40;;;;;;;3.63;2.23;;;7.40;99.90;;;;;;4895144;29;20247;-76
2022/04/19 00:18:07;;;;;;;4.60;2.20;;;7.30;99.90;;;;;;4897319;29;20196;-78
2022/04/19 00:20:38;;;;;;;3.93;2.20;;;7.00;99.90;;;;;;4899241;29;20839;-76
2022/04/19 00:23:12;;;;;;;3.10;2.00;;;7.10;99.90;;;;;;4899073;29;20218;-77
2022/04/19 00:25:40;;;;;;;2.43;2.10;;;7.10;99.90;;;;;;4909618;29;20212;-77
2022/04/19 00:28:07;;;;;;;4.37;2.47;;;6.90;99.90;;;;;;4893354;29;20200;-76
2022/04/19 00:30:34;;;;;;;3.63;2.30;;;7.00;99.90;;;;;;4896391;29;20237;-76
2022/04/19 00:33:00;;;;;;;5.17;2.70;;;6.90;99.90;;;;;;4892711;29;20230;-76
2022/04/19 00:35:28;;;;;;;2.93;2.30;;;6.90;99.90;;;;;;4891389;29;20243;-77
2022/04/19 00:37:54;;;;;;;2.73;2.30;;;6.90;99.90;;;;;;4891241;29;20215;-76
2022/04/19 00:40:21;;;;;;;4.77;2.40;;;6.90;99.90;;;;;;4888965;29;20232;-76
2022/04/19 00:42:49;;;;;;;3.20;2.13;;;6.70;99.90;;;;;;4892200;29;20211;-78
2022/04/19 00:45:15;;;;;;;3.33;2.10;;;6.70;99.90;;;;;;4892401;29;20235;-76
2022/04/19 00:47:42;;;;;;;3.40;2.10;;;6.80;99.90;;;;;;4896045;29;20207;-77
2022/04/19 00:50:09;;;;;;;2.40;2.13;;;6.80;99.90;;;;;;4896385;29;20248;-77
2022/04/19 00:52:37;;;;;;;3.07;2.17;;;6.80;99.90;;;;;;4895293;29;20216;-76
2022/04/19 00:55:07;;;;;;;3.13;1.90;;;6.70;99.90;;;;;;4899422;29;20200;-77
2022/04/19 00:57:36;;;;;;;2.57;1.90;;;6.60;99.90;;;;;;4898994;29;20432;-77
2022/04/19 01:00:08;;;;;;;3.50;2.07;;;6.50;99.90;;;;;;4915596;29;20223;-77
2022/04/19 01:02:36;;;;;;;2.67;2.07;;;6.60;99.90;;;;;;4897429;29;20237;-77
2022/04/19 01:05:04;;;;;;;2.97;2.30;;;6.70;99.90;;;;;;4898304;29;20200;-76
2022/04/19 01:07:31;;;;;;;2.77;2.20;;;6.70;99.90;;;;;;4894087;29;20205;-77
2022/04/19 01:09:59;;;;;;;2.80;1.90;;;6.70;99.90;;;;;;4898983;29;20221;-78
2022/04/19 01:15:11;;;;;;;2.43;1.90;;;6.70;99.90;;;;;;4899448;29;20205;-76
2022/04/19 01:17:39;;;;;;;5.80;2.03;;;6.60;99.90;;;;;;4901709;29;20229;-77
2022/04/19 01:20:10;;;;;;;3.20;2.03;;;6.50;99.90;;;;;;4900120;29;20222;-76
2022/04/19 01:22:38;;;;;;;3.87;2.03;;;6.40;99.90;;;;;;4900277;29;20699;-76
2022/04/19 01:25:06;;;;;;;4.63;1.80;;;6.40;99.90;;;;;;4899215;29;20206;-77
2022/04/19 01:27:33;;;;;;;2.47;1.80;;;6.60;99.90;;;;;;4894943;29;20208;-78
2022/04/19 01:30:04;;;;;;;4.17;2.33;;;6.60;99.90;;;;;;4892338;29;20621;-77
2022/04/19 01:32:32;;;;;;;2.50;1.80;;;6.60;99.90;;;;;;4900036;29;20236;-77
2022/04/19 01:35:12;;;;;;;2.97;2.00;;;6.70;99.90;;;;;;4898860;29;20202;-77
2022/04/19 01:37:41;;;;;;;2.40;1.73;;;6.60;99.90;;;;;;4913645;29;20628;-79
2022/04/19 01:40:18;;;;;;;3.00;1.93;;;6.60;99.90;;;;;;4899976;29;20216;-77
2022/04/19 01:42:58;;;;;;;2.93;2.20;;;6.40;99.90;;;;;;4897595;29;20887;-76
2022/04/19 01:45:26;;;;;;;2.93;2.00;;;6.00;99.90;;;;;;4897896;29;20218;-78
2022/04/19 01:47:55;;;;;;;2.33;1.77;;;5.90;99.90;;;;;;4896013;29;20205;-78
2022/04/19 01:50:26;;;;;;;3.73;2.00;;;6.00;99.90;;;;;;4899245;29;20649;-77
2022/04/19 01:52:54;;;;;;;2.27;1.87;;;6.00;99.90;;;;;;4900050;29;20220;-76
2022/04/19 01:55:21;;;;;;;4.07;1.80;;;6.00;99.90;;;;;;4898391;29;20660;-77
2022/04/19 01:57:51;;;;;;;2.90;2.03;;;6.10;99.90;;;;;;4894080;29;20706;-76
2022/04/19 02:00:19;;;;;;;2.43;2.10;;;6.00;99.90;;;;;;4900400;29;20216;-77
2022/04/19 02:02:47;;;;;;;2.43;2.10;;;6.10;99.90;;;;;;4890031;29;20209;-74
2022/04/19 02:05:15;;;;;;;3.50;1.90;;;6.10;99.90;;;;;;4913634;29;20209;-77
2022/04/19 02:07:44;;;;;;;3.63;2.00;;;6.10;99.90;;;;;;4894608;29;20228;-79
2022/04/19 02:10:12;;;;;;;3.80;2.43;;;6.20;99.90;;;;;;4920522;29;20705;-77
2022/04/19 02:12:40;;;;;;;3.37;2.07;;;6.10;99.90;;;;;;4905419;29;20318;-76
2022/04/19 02:15:07;;;;;;;3.03;2.30;;;6.00;99.90;;;;;;4893024;29;20205;-79
2022/04/19 02:17:41;;;;;;;2.67;2.00;;;6.10;99.90;;;;;;4894031;29;20197;-79
2022/04/19 02:20:08;;;;;;;2.73;2.23;;;6.20;99.90;;;;;;4890443;29;20708;-77
2022/04/19 02:22:36;;;;;;;3.37;2.00;;;6.20;99.90;;;;;;4905304;29;20664;-76
2022/04/19 02:25:03;;;;;;;4.17;2.47;;;6.10;99.90;;;;;;4894591;29;20229;-77
2022/04/19 02:27:31;;;;;;;3.67;2.40;;;6.10;99.90;;;;;;4897649;29;20197;-77
2022/04/19 02:29:57;;;;;;;3.37;2.50;;;6.00;99.90;;;;;;4897180;29;20719;-77
2022/04/19 02:32:24;;;;;;;3.73;2.20;;;5.90;99.90;;;;;;4905846;29;20692;-77
2022/04/19 02:34:52;;;;;;;2.70;2.03;;;5.90;99.90;;;;;;4895808;29;20511;-77
2022/04/19 02:37:18;;;;;;;2.87;2.10;;;5.80;99.90;;;;;;4892129;29;20207;-77
2022/04/19 02:39:49;;;;;;;3.97;2.53;;;5.70;99.90;;;;;;4895873;29;20449;-77
2022/04/19 02:42:17;;;;;;;3.73;2.60;;;5.80;99.90;;;;;;4892867;29;20204;-78
2022/04/19 02:44:44;;;;;;;5.07;2.40;;;5.90;99.90;;;;;;4894124;29;20202;-78
2022/04/19 02:47:10;;;;;;;5.13;2.70;;;6.00;99.90;;;;;;4906727;29;20198;-76
2022/04/19 02:49:37;;;;;;;3.53;2.43;;;6.00;99.90;;;;;;4890408;29;20283;-78
2022/04/19 02:52:04;;;;;;;3.77;2.73;;;6.00;99.90;;;;;;4897443;29;20201;-77
2022/04/19 02:54:31;;;;;;;5.47;2.90;;;5.80;99.90;;;;;;4895585;29;20229;-77
2022/04/19 02:56:58;;;;;;;4.00;2.30;;;5.60;99.90;;;;;;4894945;29;20200;-77
2022/04/19 02:59:24;;;;;;;3.83;2.60;;;5.50;99.90;;;;;;4891504;29;20225;-78
2022/04/19 03:01:51;;;;;;;5.30;2.80;;;5.50;99.90;;;;;;4895619;29;20206;-77
2022/04/19 03:04:20;;;;;;;4.93;2.97;;;5.40;99.90;;;;;;4895295;29;20289;-77
2022/04/19 03:06:47;;;;;;;4.90;3.30;;;5.40;99.90;;;;;;4893530;29;20203;-77
2022/04/19 03:09:14;;;;;;;4.37;2.63;;;5.40;99.90;;;;;;4893764;29;20274;-76
2022/04/19 03:11:41;;;;;;;3.87;2.80;;;5.40;99.90;;;;;;4894209;29;20252;-77
2022/04/19 03:14:08;;;;;;;3.93;2.90;;;5.30;99.90;;;;;;4893262;29;20281;-78
2022/04/19 03:16:34;;;;;;;4.27;2.80;;;5.30;99.90;;;;;;4895136;29;20207;-77
2022/04/19 03:19:01;;;;;;;5.03;3.17;;;5.30;99.90;;;;;;4912008;29;20600;-79
2022/04/19 03:21:28;;;;;;;5.37;2.90;;;5.20;99.90;;;;;;4905201;29;20687;-77
2022/04/19 03:29:25;;;;;;;4.33;3.13;;;5.20;99.90;;;;;;4894259;29;20239;-77
2022/04/19 03:31:52;;;;;;;3.90;2.90;;;5.30;99.90;;;;;;4891955;29;20200;-78
2022/04/19 03:34:18;;;;;;;4.73;3.50;;;5.40;99.90;;;;;;4893522;29;20693;-77
2022/04/19 03:36:46;;;;;;;5.77;3.20;;;5.50;99.90;;;;;;4892374;29;20200;-77
2022/04/19 03:39:12;;;;;;;6.23;3.33;;;5.40;99.90;;;;;;4889443;29;20219;-76
2022/04/19 03:41:58;;;;;;;5.57;3.73;;;5.20;99.90;;;;;;4891862;29;20260;-77
2022/04/19 03:44:29;;;;;;;5.67;4.00;;;5.30;99.90;;;;;;4897082;29;20203;-77
2022/04/19 03:47:09;;;;;;;5.47;3.87;;;5.40;99.90;;;;;;4890897;29;20218;-77
2022/04/19 03:49:37;;;;;;;5.63;4.03;;;5.50;99.90;;;;;;4900730;29;20220;-75
2022/04/19 03:52:04;;;;;;;4.77;3.60;;;5.40;99.90;;;;;;4889207;29;20200;-77
2022/04/19 03:54:37;;;;;;;6.17;4.00;;;5.30;99.90;;;;;;4893369;29;20255;-79
2022/04/19 03:57:07;;;;;;;5.37;3.63;;;5.20;99.90;;;;;;4892770;29;20203;-77
2022/04/19 03:59:35;;;;;;;7.63;4.20;;;5.10;99.90;;;;;;4894306;29;20713;-77
2022/04/19 04:02:04;;;;;;;6.40;3.93;;;5.00;99.90;;;;;;4898587;29;20207;-77
2022/04/19 04:04:32;;;;;;;4.03;3.50;;;5.00;99.90;;;;;;4892439;29;20204;-79
2022/04/19 04:06:59;;;;;;;8.37;3.73;;;5.20;99.90;;;;;;4901323;29;20201;-77
2022/04/19 04:09:32;;;;;;;6.07;4.10;;;5.30;99.90;;;;;;4889518;29;20216;-78
2022/04/19 04:12:01;;;;;;;6.33;4.20;;;5.30;99.90;;;;;;4890265;29;20203;-77
2022/04/19 04:14:29;;;;;;;5.40;3.80;;;5.30;99.90;;;;;;4893065;29;20223;-76
2022/04/19 04:16:56;;;;;;;6.13;4.10;;;5.20;99.90;;;;;;4892624;29;20240;-77
2022/04/19 04:19:22;;;;;;;6.03;3.90;;;5.10;99.90;;;;;;4897268;29;20320;-79
2022/04/19 04:21:49;;;;;;;6.60;3.80;;;5.00;99.90;;;;;;4892681;29;20203;-75
2022/04/19 04:24:16;;;;;;;6.00;4.00;;;5.10;99.90;;;;;;4898250;29;20235;-79
2022/04/19 04:26:42;;;;;;;6.23;4.03;;;5.00;99.90;;;;;;4898384;29;20570;-77
2022/04/19 04:29:09;;;;;;;6.63;4.13;;;5.00;99.90;;;;;;4893775;29;20897;-77
2022/04/19 04:31:36;;;;;;;7.30;4.50;;;5.10;99.90;;;;;;4901977;29;20669;-77
2022/04/19 04:34:03;;;;;;;7.97;4.33;;;5.20;99.90;;;;;;4893800;29;20303;-77
2022/04/19 04:36:29;;;;;;;6.13;4.40;;;5.10;99.90;;;;;;4889316;29;20209;-79
2022/04/19 04:38:56;;;;;;;5.33;3.83;;;5.00;99.90;;;;;;4895615;29;20224;-77
2022/04/19 04:41:22;;;;;;;5.20;4.07;;;5.00;99.90;;;;;;4891138;29;20197;-79
2022/04/19 04:43:49;;;;;;;7.90;4.00;;;5.00;99.90;;;;;;4889686;29;20206;-74
2022/04/19 04:51:46;;;;;;;9.53;4.63;;;5.20;99.90;;;;;;4889410;29;20207;-79
2022/04/19 04:54:13;;;;;;;7.00;4.13;;;5.20;99.90;;;;;;4893994;29;20276;-77
2022/04/19 04:56:40;;;;;;;5.37;4.07;;;5.30;99.90;;;;;;4894249;29;20205;-77
2022/04/19 04:59:06;;;;;;;9.53;4.47;;;5.30;99.90;;;;;;4895896;29;20715;-78
2022/04/19 05:01:33;;;;;;;5.93;4.03;;;5.20;99.90;;;;;;4895431;29;20215;-78
2022/04/19 05:03:59;;;;;;;5.17;3.77;;;5.20;99.90;;;;;;4891116;29;20227;-77
2022/04/19 05:06:26;;;;;;;7.47;4.57;;;5.10;99.90;;;;;;4893883;29;20212;-77
2022/04/19 05:08:53;;;;;;;6.10;4.43;;;5.20;99.90;;;;;;4888183;29;20226;-79
2022/04/19 05:11:20;;;;;;;7.30;3.97;;;5.40;99.90;;;;;;4895300;29;20209;-79
2022/04/19 05:13:46;;;;;;;7.33;4.37;;;5.20;99.90;;;;;;4895754;29;20718;-77
2022/04/19 05:16:13;;;;;;;7.97;4.30;;;5.30;99.90;;;;;;4890614;29;20194;-77
2022/04/19 05:18:39;;;;;;;6.80;4.60;;;5.50;99.90;;;;;;4894232;29;20219;-75
2022/04/19 05:21:07;;;;;;;8.47;4.60;;;5.60;99.90;;;;;;4889141;29;20207;-78
2022/04/19 05:23:34;;;;;;;10.40;4.90;;;5.70;99.90;;;;;;4888059;29;20208;-77
2022/04/19 05:26:01;;;;;;;8.87;4.13;;;5.80;99.90;;;;;;4891902;29;20206;-76
2022/04/19 05:28:27;;;;;;;8.07;4.53;;;5.80;99.90;;;;;;4891488;29;20210;-74
2022/04/19 05:30:54;;;;;;;7.43;4.83;;;5.70;99.90;;;;;;4892212;29;20211;-77
2022/04/19 05:33:21;;;;;;;7.40;5.13;;;5.70;99.90;;;;;;4891930;29;20300;-74
2022/04/19 05:35:47;;;;;;;7.40;5.40;;;5.90;99.90;;;;;;4893789;29;20206;-74
2022/04/19 05:38:14;;;;;;;7.40;4.90;;;6.00;99.90;;;;;;4895849;29;20534;-76
2022/04/19 05:40:41;;;;;;;7.70;5.40;;;6.00;99.90;;;;;;4892861;29;20216;-75
2022/04/19 05:43:08;;;;;;;8.63;5.30;;;6.10;99.90;;;;;;4898637;29;20649;-80
2022/04/19 05:45:35;;;;;;;10.67;5.00;;;6.30;99.90;;;;;;4897639;29;20223;-77
2022/04/19 05:48:01;;;;;;;9.23;5.13;;;6.40;99.90;;;;;;4895692;29;20211;-76
2022/04/19 05:50:28;;;;;;;8.27;4.93;;;6.40;99.90;;;;;;4914412;29;20222;-78
2022/04/19 05:52:55;;;;;;;6.37;4.60;;;6.50;99.90;;;;;;4896539;29;20207;-74
2022/04/19 05:55:21;;;;;;;9.03;5.40;;;6.50;99.90;;;;;;4911454;29;20235;-79
2022/04/19 05:57:48;;;;;;;10.63;4.77;;;6.60;99.90;;;;;;4903004;29;20196;-77
2022/04/19 06:00:15;;;;;;;11.47;5.53;;;6.70;99.90;;;;;;4905399;29;20223;-78
2022/04/19 06:05:27;;;;;;;8.87;4.47;;;6.70;99.90;;;;;;4894789;29;20214;-77
2022/04/19 06:07:54;;;;;;;6.53;4.73;;;6.70;99.90;;;;;;4883555;29;20285;-85
2022/04/19 06:10:22;;;;;;;6.17;4.73;;;6.80;99.90;;;;;;4892450;29;20230;-79
2022/04/19 06:12:48;;;;;;;7.80;4.67;;;6.90;99.90;;;;;;4893234;29;20207;-77
2022/04/19 06:15:15;;;;;;;7.10;4.80;;;7.00;99.90;;;;;;4894472;29;20935;-76
2022/04/19 06:17:42;;;;;;;8.10;4.50;;;7.20;99.90;;;;;;4898095;29;20703;-79
2022/04/19 06:20:10;;;;;;;6.60;4.70;;;7.20;99.90;;;;;;4906069;29;20223;-78
2022/04/19 06:22:36;;;;;;;8.60;4.60;;;7.20;99.90;;;;;;4900744;29;20196;-78
2022/04/19 06:25:03;;;;;;;9.60;4.40;;;7.20;99.90;;;;;;4896075;29;20210;-77
2022/04/19 06:27:31;;;;;;;6.43;4.07;;;7.30;99.90;;;;;;4913852;29;20689;-76
2022/04/19 06:29:58;;;;;;;8.50;4.20;;;7.30;99.90;;;;;;4899502;29;20312;-79
2022/04/19 06:32:25;;;;;;;6.30;3.97;;;7.50;99.90;;;;;;4897422;29;20285;-76
2022/04/19 06:34:53;;;;;;;5.07;3.80;;;7.60;99.90;;;;;;4892347;29;20219;-77
2022/04/19 06:37:22;;;;;;;6.07;4.40;;;7.60;99.90;;;;;;4913259;29;20808;-76
2022/04/19 06:39:49;;;;;;;6.70;4.10;;;7.70;99.90;;;;;;4902335;29;20235;-78
2022/04/19 06:42:16;;;;;;;5.70;4.27;;;7.70;99.90;;;;;;4894397;29;20205;-80
2022/04/19 06:44:44;;;;;;;8.90;4.50;;;7.80;99.90;;;;;;4885850;29;20207;-77
2022/04/19 06:47:11;;;;;;;10.33;4.07;;;8.00;99.90;;;;;;4894594;29;20204;-78
2022/04/19 06:49:38;;;;;;;7.90;4.43;;;8.10;99.90;;;;;;4890497;29;20750;-76
2022/04/19 06:52:06;;;;;;;8.63;4.57;;;8.20;99.90;;;;;;4896029;29;20213;-74
2022/04/19 06:54:33;;;;;;;5.27;4.10;;;8.60;99.90;;;;;;4892513;29;20242;-75
2022/04/19 06:57:00;;;;;;;7.93;3.90;;;8.70;99.90;;;;;;4893428;29;20197;-71
2022/04/19 06:59:26;;;;;;;6.07;4.10;;;8.90;99.90;;;;;;4887957;29;20237;-75
2022/04/19 07:01:53;;;;;;;6.20;3.90;;;9.00;99.90;;;;;;4907795;29;20205;-75
2022/04/19 07:04:20;;;;;;;7.50;4.57;;;9.10;99.90;;;;;;4892410;29;21580;-75
2022/04/19 07:06:47;;;;;;;4.93;4.10;;;9.20;99.90;;;;;;4893551;29;20294;-78
2022/04/19 07:09:13;;;;;;;8.80;3.90;;;9.40;99.90;;;;;;4890543;29;20226;-75
2022/04/19 07:11:40;;;;;;;7.17;4.57;;;9.70;99.90;;;;;;4888701;29;20205;-75
2022/04/19 07:14:06;;;;;;;6.40;4.30;;;10.00;99.90;;;;;;4895884;29;20232;-77
2022/04/19 07:16:33;;;;;;;5.47;3.53;;;10.50;99.90;;;;;;4897075;29;20201;-75
2022/04/19 07:19:00;;;;;;;5.63;3.57;;;11.00;99.90;;;;;;4907140;29;20220;-75
2022/04/19 07:27:21;;;;;;;3.53;3.10;;;11.90;99.90;;;;;;4888860;29;20733;-77
2022/04/19 07:29:48;;;;;;;5.87;3.13;;;12.30;99.90;;;;;;4894278;29;20226;-78
2022/04/19 07:32:15;;;;;;;5.73;3.33;;;12.60;99.90;;;;;;4890383;29;20200;-77
2022/04/19 07:34:41;;;;;;;7.90;3.17;;;12.60;99.90;;;;;;4885989;29;20224;-77
2022/04/19 07:37:08;;;;;;;5.67;3.00;;;12.40;99.90;;;;;;4887136;29;20203;-82
2022/04/19 07:39:35;;;;;;;7.00;3.30;;;12.30;99.90;;;;;;4884283;29;21690;-83
2022/04/19 07:42:01;;;;;;;5.50;3.27;;;12.40;99.90;;;;;;4888646;29;20215;-85
2022/04/19 07:44:32;;;;;;;3.53;3.10;;;12.50;99.90;;;;;;4887667;29;20204;-85
2022/04/19 07:46:59;;;;;;;6.43;3.30;;;12.60;99.90;;;;;;4883709;29;20212;-85
2022/04/19 07:49:25;;;;;;;5.33;3.50;;;12.80;99.90;;;;;;4888648;29;20429;-83
2022/04/19 07:51:52;;;;;;;6.77;3.80;;;13.00;99.90;;;;;;4890759;29;20201;-84
2022/04/19 07:54:19;;;;;;;7.53;4.27;;;13.10;99.90;;;;;;4888738;29;20649;-85
2022/04/19 07:56:45;;;;;;;8.10;4.70;;;13.30;99.90;;;;;;4891188;29;20203;-83
2022/04/19 07:59:12;;;;;;;7.10;4.60;;;13.50;99.90;;;;;;4891137;29;20246;-80
2022/04/19 08:01:39;;;;;;;9.33;4.40;;;13.70;99.90;;;;;;4891162;29;20211;-81
2022/04/19 08:04:05;;;;;;;8.83;5.07;;;13.80;99.90;;;;;;4885943;29;20199;-81
2022/04/19 08:06:32;;;;;;;8.90;4.33;;;13.90;99.90;;;;;;4887030;29;20201;-78
2022/04/19 08:08:59;;;;;;;9.70;3.70;;;14.10;99.90;;;;;;4887710;29;20223;-76
2022/04/19 08:11:27;;;;;;;11.30;4.53;;;14.20;99.90;;;;;;4886988;29;20224;-77
2022/04/19 08:13:54;;;;;;;9.13;4.40;;;14.30;99.90;;;;;;4884435;29;20201;-79
2022/04/19 08:16:21;;;;;;;8.60;4.23;;;14.30;99.90;;;;;;4886994;29;20290;-77
2022/04/19 08:18:47;;;;;;;10.17;4.63;;;14.30;99.90;;;;;;4884008;29;20259;-76
2022/04/19 08:21:14;;;;;;;9.13;4.60;;;14.50;99.90;;;;;;4886603;29;20199;-76
2022/04/19 08:23:41;;;;;;;11.60;4.87;;;14.70;99.90;;;;;;4877553;29;20198;-74
2022/04/19 08:26:07;;;;;;;17.03;5.50;;;14.80;99.90;;;;;;4882572;29;20209;-76
2022/04/19 08:28:35;;;;;;;9.53;4.37;;;14.90;99.90;;;;;;4884144;29;20631;-74
2022/04/19 08:31:02;;;;;;;6.93;4.37;;;15.10;99.90;;;;;;4884549;29;20298;-73
2022/04/19 08:33:29;;;;;;;6.63;4.37;;;15.10;99.90;;;;;;4881424;29;20196;-75
2022/04/19 08:35:57;;;;;;;13.17;5.20;;;15.30;99.90;;;;;;4883196;29;20228;-73
2022/04/19 08:38:23;;;;;;;9.67;5.47;;;15.50;99.90;;;;;;4887763;29;20239;-74
2022/04/19 08:40:50;;;;;;;11.20;5.30;;;15.50;99.90;;;;;;4880072;29;20231;-76
2022/04/19 08:43:17;;;;;;;10.13;5.17;;;15.50;99.90;;;;;;4882106;29;20669;-73
2022/04/19 08:45:45;;;;;;;8.40;5.10;;;15.50;99.90;;;;;;4888863;29;20199;-74
2022/04/19 08:48:13;;;;;;;8.73;4.90;;;15.80;99.90;;;;;;4890544;29;20339;-74
2022/04/19 08:50:40;;;;;;;9.20;4.90;;;16.00;99.90;;;;;;4891657;29;20228;-75
2022/04/19 08:58:39;;;;;;;8.60;4.90;;;16.40;99.90;;;;;;4883472;29;20196;-75
2022/04/19 09:01:05;;;;;;;9.20;5.03;;;16.70;99.90;;;;;;4888080;29;20200;-74
2022/04/19 09:03:33;;;;;;;8.77;5.13;;;16.80;99.90;;;;;;4900843;29;20208;-75
2022/04/19 09:05:59;;;;;;;10.03;5.20;;;17.10;99.90;;;;;;4895875;29;20248;-74
2022/04/19 09:08:27;;;;;;;10.00;5.83;;;16.90;99.90;;;;;;4883834;29;20200;-74
2022/04/19 09:11:06;;;;;;;11.47;5.03;;;16.90;99.90;;;;;;4891506;29;20759;-74
2022/04/19 09:13:33;;;;;;;9.13;4.83;;;17.00;99.90;;;;;;4894952;29;20204;-74
2022/04/19 09:16:06;;;;;;;9.13;5.67;;;17.20;99.90;;;;;;4904980;29;20711;-74
2022/04/19 09:18:36;;;;;;;10.67;4.83;;;17.40;99.90;;;;;;4891710;29;20196;-75
2022/04/19 09:21:05;;;;;;;9.67;5.43;;;17.70;99.90;;;;;;4886168;29;20211;-73
2022/04/19 09:23:33;;;;;;;9.10;5.47;;;17.80;99.90;;;;;;4896202;29;20578;-74
2022/04/19 09:26:05;;;;;;;9.07;5.13;;;17.90;99.90;;;;;;4890068;29;20226;-73
2022/04/19 09:28:34;;;;;;;9.03;5.33;;;17.80;99.90;;;;;;4895109;29;20200;-74
2022/04/19 09:31:09;;;;;;;9.43;5.30;;;17.90;99.90;;;;;;4895086;29;20205;-76
2022/04/19 09:33:35;;;;;;;8.80;5.57;;;18.10;99.90;;;;;;4889372;29;20505;-73
2022/04/19 09:36:04;;;;;;;8.70;5.30;;;18.30;99.90;;;;;;4888649;29;20220;-74
2022/04/19 09:38:38;;;;;;;9.27;4.80;;;18.30;99.70;;;;;;4891858;29;20625;-79
2022/04/19 09:41:07;;;;;;;9.13;5.43;;;18.40;99.70;;;;;;4893186;29;20482;-73
2022/04/19 09:44:06;;;;;;;10.17;5.07;;;18.40;99.00;;;;;;4894091;29;20609;-74
2022/04/19 09:46:33;;;;;;;12.57;5.80;;;18.40;98.80;;;;;;4885983;29;20672;-74
2022/04/19 09:49:00;;;;;;;10.97;5.57;;;18.50;98.80;;;;;;4892820;29;20220;-74
2022/04/19 09:51:31;;;;;;;10.63;6.27;;;18.60;99.50;;;;;;4892735;29;20211;-73
2022/04/19 09:53:58;;;;;;;8.77;5.37;;;18.50;99.90;;;;;;4893184;29;20200;-72
2022/04/19 09:56:34;;;;;;;10.47;5.80;;;18.60;99.90;;;;;;4889957;29;20220;-73
2022/04/19 09:59:20;;;;;;;10.70;6.03;;;18.80;98.30;;;;;;4892843;29;20660;-73
2022/04/19 10:10:06;;;;;;;12.43;5.97;;;18.90;98.40;;;;;;4895005;29;20231;-72
2022/04/19 10:12:33;;;;;;;10.50;6.00;;;19.00;98.10;;;;;;4894231;29;20192;-73
2022/04/19 10:15:04;;;;;;;9.53;5.77;;;19.20;97.70;;;;;;4891372;29;20609;-73
2022/04/19 10:17:32;;;;;;;9.60;5.80;;;19.30;97.50;;;;;;4892737;29;20298;-71
2022/04/19 10:20:00;;;;;;;11.20;5.90;;;19.30;97.90;;;;;;4897934;29;20585;-75
2022/04/19 10:22:27;;;;;;;10.17;5.90;;;19.50;97.30;;;;;;4893135;29;20208;-75
2022/04/19 10:24:57;;;;;;;11.97;6.27;;;19.40;96.90;;;;;;4890078;29;20200;-74
2022/04/19 10:27:31;;;;;;;10.20;5.80;;;19.10;96.80;;;;;;4893971;29;20215;-73
2022/04/19 10:29:58;;;;;;;10.27;6.40;;;19.10;97.00;;;;;;4893484;29;20716;-72
2022/04/19 10:32:33;;;;;;;9.87;5.63;;;19.30;97.30;;;;;;4893032;29;20204;-75
2022/04/19 10:35:02;;;;;;;12.13;5.57;;;19.50;96.70;;;;;;4894796;29;20641;-73
2022/04/19 10:37:29;;;;;;;9.67;6.10;;;19.50;96.70;;;;;;4887905;29;20222;-72
2022/04/19 10:39:59;;;;;;;10.77;6.63;;;19.60;96.50;;;;;;4886715;29;20227;-73
2022/04/19 10:42:37;;;;;;;8.87;5.70;;;19.70;97.00;;;;;;4892277;29;20223;-74
2022/04/19 10:45:13;;;;;;;8.60;5.77;;;19.70;95.90;;;;;;4893389;29;20238;-73
2022/04/19 10:47:51;;;;;;;12.87;6.20;;;19.90;96.30;;;;;;4893548;29;20294;-71
2022/04/19 10:50:29;;;;;;;11.20;5.93;;;20.00;96.60;;;;;;4890190;29;20231;-74
2022/04/19 10:53:03;;;;;;;9.63;5.43;;;20.00;95.90;;;;;;4893094;29;20204;-72
2022/04/19 10:55:40;;;;;;;9.33;5.67;;;20.00;95.40;;;;;;4892027;29;20219;-72
2022/04/19 10:58:09;;;;;;;11.17;6.83;;;20.10;95.60;;;;;;4892744;29;20200;-72
2022/04/19 11:00:36;;;;;;;10.43;6.20;;;20.20;95.70;;;;;;4893130;29;20712;-71
2022/04/19 11:03:26;;;;;;;13.13;6.70;;;20.30;95.00;;;;;;4888265;29;20260;-72
2022/04/19 11:05:57;;;;;;;11.07;6.10;;;20.20;95.00;;;;;;4894122;29;20211;-72
2022/04/19 11:08:29;;;;;;;11.35;6.65;;;20.20;95.40;;;;;;4882861;29;20215;-70
2022/04/19 11:10:56;;;;;;;11.60;6.65;;;20.30;95.10;;;;;;4894072;29;20744;-72
2022/04/19 11:13:23;;;;;;;10.80;6.05;;;20.40;95.00;;;;;;4891333;29;20208;-72
2022/04/19 11:16:13;;;;;;;10.45;6.65;;;20.40;95.10;;;;;;4892480;29;20228;-74
2022/04/19 11:18:39;;;;;;;11.07;6.60;;;20.30;94.50;;;;;;4893335;29;20197;-72
2022/04/19 15:27:42;;;;;;;2.60;1.07;;;20.20;91.60;;;;;;4881207;29;20271;-75
2022/04/19 15:30:09;;;;;;;3.53;1.10;;;20.20;91.20;;;;;;4884896;29;20260;-71
2022/04/19 15:32:37;;;;;;;2.57;1.30;;;20.30;91.10;;;;;;4890284;29;20673;-71
2022/04/19 15:35:04;;;;;;;2.97;1.00;;;20.20;91.50;;;;;;4885888;29;20201;-72
2022/04/19 15:37:31;;;;;;;1.67;0.90;;;20.10;91.60;;;;;;4884108;29;20677;-72
2022/04/19 15:39:57;;;;;;;1.90;1.20;;;20.20;91.50;;;;;;4884703;29;20235;-71
2022/04/19 15:42:24;;;;;;;1.47;1.07;;;20.20;91.20;;;;;;4899912;29;20737;-72
2022/04/19 15:44:51;;;;;;;3.13;0.90;;;20.20;91.30;;;;;;4887249;29;20199;-72
2022/04/19 15:47:17;;;;;;;1.20;1.00;;;20.10;91.40;;;;;;4886490;29;20208;-73
2022/04/19 15:49:44;;;;;;;1.10;0.90;;;20.00;91.60;;;;;;4889253;29;20235;-73
2022/04/19 15:52:11;;;;;;;2.70;0.90;;;20.00;91.70;;;;;;4887357;29;20219;-72
2022/04/19 15:54:44;;;;;;;1.10;1.00;;;20.10;91.80;;;;;;4884901;29;20211;-71
2022/04/19 15:57:11;;;;;;;2.10;1.10;;;20.10;92.20;;;;;;4887045;29;20270;-72
2022/04/19 15:59:37;;;;;;;1.30;1.17;;;19.90;92.20;;;;;;4898770;29;20223;-73
2022/04/19 16:02:05;;;;;;;1.77;1.30;;;19.80;92.40;;;;;;4886150;29;20208;-72
2022/04/19 16:04:33;;;;;;;1.53;1.37;;;19.70;92.70;;;;;;4884445;29;20722;-69
2022/04/19 16:07:00;;;;;;;1.43;1.30;;;19.70;92.70;;;;;;4885491;29;20204;-71
2022/04/19 16:09:27;;;;;;;1.67;1.17;;;19.70;92.60;;;;;;4887878;29;20224;-72
2022/04/19 16:11:54;;;;;;;1.53;1.10;;;19.70;92.30;;;;;;4886475;29;20200;-72
2022/04/19 16:14:21;;;;;;;3.00;1.30;;;19.60;92.60;;;;;;4884883;29;21115;-71
2022/04/19 16:25:04;;;;;;;1.60;1.23;;;19.40;92.40;;;;;;4886823;29;20200;-71
2022/04/19 16:27:32;;;;;;;2.80;1.10;;;19.50;92.50;;;;;;4885489;29;20586;-71
2022/04/19 16:30:01;;;;;;;3.03;1.00;;;19.50;92.80;;;;;;4887880;29;20295;-71
2022/04/19 16:32:28;;;;;;;1.67;1.07;;;19.40;92.90;;;;;;4885567;29;20256;-71
2022/04/19 16:34:55;;;;;;;2.73;1.20;;;19.40;93.00;;;;;;4883756;29;20228;-72
2022/04/19 16:37:21;;;;;;;2.27;1.27;;;19.40;93.40;;;;;;4887955;29;20224;-73
2022/04/19 16:39:48;;;;;;;2.43;1.37;;;19.30;93.40;;;;;;4883673;29;20228;-72
2022/04/19 16:42:15;;;;;;;1.50;1.30;;;19.30;93.40;;;;;;4887314;29;20204;-72
2022/04/19 16:44:43;;;;;;;1.70;1.10;;;19.10;93.60;;;;;;4886100;29;20207;-70
2022/04/19 16:47:10;;;;;;;1.30;1.00;;;19.10;93.40;;;;;;4886675;29;20216;-73
2022/04/19 16:49:36;;;;;;;2.20;1.10;;;19.10;93.30;;;;;;4884371;29;20238;-73
2022/04/19 16:52:04;;;;;;;1.37;1.20;;;19.10;93.80;;;;;;4886211;29;20215;-71
2022/04/19 16:54:33;;;;;;;2.00;1.30;;;19.10;94.50;;;;;;4886815;29;20212;-72
2022/04/19 16:57:00;;;;;;;1.30;1.00;;;19.10;94.80;;;;;;4885920;29;20446;-70
2022/04/19 16:59:26;;;;;;;3.43;1.13;;;19.10;94.40;;;;;;4884087;29;20220;-71
2022/04/19 17:01:53;;;;;;;1.50;1.10;;;19.00;94.80;;;;;;4884228;29;20684;-71
2022/04/19 17:04:20;;;;;;;1.73;1.20;;;18.90;95.10;;;;;;4889522;29;20210;-71
2022/04/19 17:06:47;;;;;;;2.20;1.20;;;18.80;95.20;;;;;;4884365;29;20232;-72
2022/04/19 17:09:14;;;;;;;2.13;1.00;;;18.80;95.50;;;;;;4884284;29;20278;-71
2022/04/19 17:11:45;;;;;;;2.60;1.30;;;18.80;95.60;;;;;;4886598;29;20300;-74
2022/04/19 17:14:12;;;;;;;1.27;1.00;;;18.80;95.40;;;;;;4889184;29;20204;-75
2022/04/19 17:16:38;;;;;;;3.33;1.60;;;18.70;95.10;;;;;;4884707;29;20599;-73
2022/04/19 17:19:06;;;;;;;1.97;1.40;;;18.70;95.50;;;;;;4892200;29;20235;-71
2022/04/19 17:21:32;;;;;;;2.50;1.60;;;18.70;95.50;;;;;;4885303;29;20209;-73
2022/04/19 17:24:00;;;;;;;4.23;1.40;;;18.60;95.90;;;;;;4889798;29;20211;-73
2022/04/19 17:26:30;;;;;;;1.27;1.13;;;18.60;96.60;;;;;;4887749;29;20677;-71
2022/04/19 17:28:57;;;;;;;1.43;1.20;;;18.60;96.80;;;;;;4882202;29;20468;-72
2022/04/19 17:31:24;;;;;;;2.23;1.20;;;18.50;97.10;;;;;;4893729;29;20621;-71
2022/04/19 17:33:51;;;;;;;1.60;1.03;;;18.40;97.20;;;;;;4893594;29;20304;-71
2022/04/19 17:36:17;;;;;;;2.17;1.00;;;18.30;97.00;;;;;;4889902;29;20220;-71
2022/04/19 17:38:44;;;;;;;3.50;0.90;;;18.20;96.20;;;;;;4884998;29;20208;-71
2022/04/19 17:41:11;;;;;;;4.97;1.07;;;18.00;95.40;;;;;;4901259;29;20196;-71
2022/04/19 17:43:39;;;;;;;7.10;1.20;;;17.80;95.60;;;;;;4896319;29;20219;-73
2022/04/19 17:46:06;;;;;;;3.13;1.00;;;17.70;95.50;;;;;;4895760;29;20219;-72
2022/04/19 17:48:37;;;;;;;1.70;0.87;;;17.50;95.80;;;;;;4893547;29;20223;-70